首页
METAR-TAF:

METAR-TAF

机场 :

科克機場

科克, 爱尔兰

纬度: 51-51N, 经度: 008-29W, 海拔: 153米

当前天气观测

该预报发布于29分钟前的18:00 UTC
风速18节,风向南转西南
温度 15°C
湿度 94%
气压 1006 hPa
能見度: 6000
阴天层高于200英尺
小毛毛雨

METAR: EICK 041800Z 21018KT 6000 -DZ OVC002 15/14 Q1006 TEMPO 2000

时间: 19:29 (18:29 UTC)

预报

该预报发布于1小时和29分钟前的17:00 UTC
预报有效从04日的 18点(UTC)到 05日的 18点(UTC)
风速10节,风向西转西南
能见度10公里或以上
散云层高于500英尺
多云层高于800英尺
短暂存在
从 04日的 18点(UTC)到 04日的 24点(UTC)
能見度: 4000
多云层高于500英尺
小雨, 毛毛雨
几率 30% :
短暂存在
从 04日的 18点(UTC)到 04日的 24点(UTC)
能見度: 2000
多云层高于200英尺
成为
从 04日的 18点(UTC)到 04日的 20点(UTC)
风速18节,风向西南,有时为28节阵风
多云层高于1200英尺
成为
从 05日的 00点(UTC)到 05日的 02点(UTC)
风速18节,风向西,有时为32节阵风
散云层高于1200英尺
多云层高于2000英尺
成为
从 05日的 03点(UTC)到 05日的 05点(UTC)
风速15节,风向西
成为
从 05日的 09点(UTC)到 05日的 11点(UTC)
风速20节,风向西,有时为32节阵风
短暂存在
从 05日的 11点(UTC)到 05日的 18点(UTC)
少量云层高于1800英尺, 积雨云.

TAF: EICK 041700Z 0418/0518 24010KT 9999 SCT005 BKN008 TEMPO 0418/0424 4000 -RADZ BKN005 PROB30 TEMPO 0418/0424 2000 BKN002 BECMG 0418/0420 23018G28KT BKN012 BECMG 0500/0502 27018G32KT SCT012 BKN020 BECMG 0503/0505 27015KT BECMG 0509/0511 27020G32KT TEMPO 0511/0518 FEW018CB

超过4000个机场的气象观测和天气预报(METAR&TAF报告)。

可查询的气象台以黄色和红色小点在地图上表示。

将鼠标移到小点上方,可查看气象台名称。

然后点击查看天气观测和预报。

如需切换地图:点击带黑十字的绿色按钮放大地图;点击带横线的绿色按钮缩小地图;或者点击绿色箭头查看邻近地区的地图。


METAR-TAF: